createdAt,value
2019-04-16T06:39:06.494Z,4.9
2019-04-16T06:44:08.848Z,5
2019-04-16T06:49:11.244Z,5.1
2019-04-16T06:54:13.695Z,5.2
2019-04-16T06:59:17.228Z,5.3
2019-04-16T07:04:18.646Z,5.3
2019-04-16T07:09:25.159Z,5.4
2019-04-16T07:14:23.607Z,5.5
2019-04-16T07:19:26.014Z,5.7
2019-04-16T07:24:30.516Z,5.8
2019-04-16T07:29:32.511Z,5.9
2019-04-16T07:34:33.454Z,6
2019-04-16T07:39:37.176Z,6.1
2019-04-16T07:44:39.207Z,6.2
2019-04-16T07:49:40.533Z,6.3
2019-04-16T07:54:42.975Z,6.4
2019-04-16T07:59:45.426Z,6.5
2019-04-16T08:04:47.915Z,6.6
2019-04-16T08:09:50.323Z,6.7
2019-04-16T08:14:52.759Z,6.8
2019-04-16T08:25:02.449Z,7
2019-04-16T08:30:03.316Z,7.1
2019-04-16T08:35:02.648Z,7.2
2019-04-16T08:40:04.947Z,7.4
2019-04-16T08:45:08.370Z,7.5
2019-04-16T08:50:11.673Z,7.7
2019-04-16T08:55:12.273Z,7.8
2019-04-16T09:00:15.469Z,7.9
2019-04-16T09:05:17.164Z,8
2019-04-16T09:10:23.464Z,8.1
2019-04-16T09:15:22.045Z,8.2
2019-04-16T09:20:24.470Z,8.4
2019-04-16T09:25:26.906Z,8.5
2019-04-16T09:30:29.351Z,8.6
2019-04-16T09:35:31.956Z,8.8
2019-04-16T09:40:34.227Z,8.9
2019-04-16T09:45:37.998Z,9.1
2019-04-16T09:50:42.433Z,9.3
2019-04-16T09:55:41.581Z,9.4
2019-04-16T10:00:46.979Z,9.6
2019-04-16T10:05:46.593Z,9.7
2019-04-16T10:15:51.384Z,10
2019-04-16T10:20:53.758Z,10.2
2019-04-16T10:25:56.179Z,10.3
2019-04-16T10:30:58.687Z,10.5
2019-04-16T10:36:04.539Z,10.8
2019-04-16T10:41:03.548Z,11
2019-04-16T10:46:05.975Z,11.2
2019-04-16T10:51:08.379Z,11.5
2019-04-16T10:56:11.210Z,11.9
2019-04-16T11:01:13.366Z,12.2
2019-04-16T11:06:15.757Z,12.6
2019-04-16T11:11:18.145Z,12.9
2019-04-16T11:16:20.701Z,13.3
2019-04-16T11:21:23.103Z,13.6
2019-04-16T11:31:27.957Z,14.2
2019-04-16T11:36:31.551Z,14.6
2019-04-16T11:41:32.849Z,15.2
2019-04-16T11:46:35.297Z,15.1
2019-04-16T11:51:37.748Z,15
2019-04-16T11:56:40.373Z,15.4
2019-04-16T12:01:42.622Z,15.9
2019-04-16T12:06:45.248Z,16.3
2019-04-16T12:11:47.566Z,16.6
2019-04-16T12:16:49.930Z,16.9
2019-04-16T12:21:52.335Z,17
2019-04-16T12:26:54.801Z,16.9
2019-04-16T12:31:57.218Z,16.8
2019-04-16T12:37:00.049Z,17.2
2019-04-16T12:42:02.194Z,17.9
2019-04-16T12:47:04.570Z,18.7
2019-04-16T12:52:07.116Z,19.1
2019-04-16T12:57:10.203Z,19.8
2019-04-16T13:02:13.248Z,20
2019-04-16T13:07:14.285Z,20.7
2019-04-16T13:12:16.762Z,21.4
2019-04-16T13:17:19.460Z,22.1
2019-04-16T13:22:21.964Z,22.7
2019-04-16T13:27:24.144Z,23.3
2019-04-16T13:32:27.860Z,23.9
2019-04-16T13:37:31.715Z,24.2
2019-04-16T13:42:31.460Z,24.8
2019-04-16T13:47:33.928Z,25.7
2019-04-16T13:52:36.702Z,26.4
2019-04-16T13:57:38.764Z,27
2019-04-16T14:02:41.261Z,27.5
2019-04-16T14:07:43.713Z,28
2019-04-16T14:12:46.083Z,28.3
2019-04-16T14:17:52.701Z,28.9
2019-04-16T14:22:53.508Z,29.6
2019-04-16T14:27:55.346Z,30.4
2019-04-16T14:32:55.860Z,30.8
2019-04-16T14:37:58.279Z,30.5
2019-04-16T14:43:00.792Z,30.9
2019-04-16T14:48:07.582Z,31.4
2019-04-16T14:53:05.917Z,31.9
2019-04-16T14:58:08.007Z,32.2
2019-04-16T15:03:10.609Z,32.4
2019-04-16T15:08:12.903Z,32.1
2019-04-16T15:13:15.403Z,32.5
2019-04-16T15:18:17.781Z,32.6
2019-04-16T15:23:20.709Z,32.3
2019-04-16T15:28:22.671Z,32.4
2019-04-16T15:33:25.141Z,32.1
2019-04-16T15:38:29.531Z,32
2019-04-16T15:43:29.987Z,32.1
2019-04-16T15:48:32.519Z,32.6
2019-04-16T15:53:35.208Z,32.9
2019-04-16T15:58:37.316Z,32.9
2019-04-16T16:03:39.766Z,32.9
2019-04-16T16:08:42.224Z,32.7
2019-04-16T16:13:44.667Z,32.2
2019-04-16T16:18:47.089Z,31.9
2019-04-16T16:23:49.566Z,31.4
2019-04-16T16:28:51.966Z,30.8
2019-04-16T16:33:54.482Z,29.3
2019-04-16T16:38:57.505Z,27.6
2019-04-16T16:43:59.287Z,25.6
2019-04-16T16:49:01.755Z,23.4
2019-04-16T16:54:04.217Z,21.6
2019-04-16T16:59:06.608Z,20.2
2019-04-16T17:04:09.063Z,19.1
2019-04-16T17:09:11.847Z,18.3
2019-04-16T17:14:13.939Z,17.5
2019-04-16T17:19:16.391Z,16.8
2019-04-16T17:24:18.843Z,16.2
2019-04-16T17:29:21.352Z,15.6
2019-04-16T17:34:23.733Z,14.9
2019-04-16T17:39:26.503Z,14.4
2019-04-16T17:44:28.579Z,13.9
2019-04-16T17:49:31.016Z,13.5
2019-04-16T17:54:33.477Z,13.1
2019-04-16T17:59:35.914Z,12.8
2019-04-16T18:04:38.355Z,12.5
2019-04-16T18:09:41.148Z,12.3
2019-04-16T18:14:43.230Z,12
2019-04-16T18:19:45.714Z,11.8
2019-04-16T18:24:48.171Z,11.6
2019-04-16T18:29:50.544Z,11.4
2019-04-16T18:34:53.356Z,11.2
2019-04-16T18:39:55.841Z,11.1
2019-04-16T18:44:57.928Z,10.9
2019-04-16T18:50:00.304Z,10.7
2019-04-16T18:55:02.817Z,10.6
2019-04-16T19:00:05.280Z,10.5
2019-04-16T19:05:07.647Z,10.4
2019-04-16T19:10:10.438Z,10.2
2019-04-16T19:15:12.499Z,10
2019-04-16T19:20:17.635Z,9.7
2019-04-16T19:25:17.402Z,9.6
2019-04-16T19:30:22.627Z,9.4
2019-04-16T19:35:22.717Z,9.3
2019-04-16T19:40:25.144Z,9.2
2019-04-16T19:45:27.291Z,9
2019-04-16T19:50:35.539Z,8.9
2019-04-16T19:55:32.044Z,8.8
2019-04-16T20:00:34.457Z,8.7
2019-04-16T20:05:36.961Z,8.6
2019-04-16T20:10:39.712Z,8.5
2019-04-16T20:15:43.492Z,8.4
2019-04-16T20:20:47.029Z,8.3
2019-04-16T20:25:46.695Z,8.1
2019-04-16T20:30:49.130Z,8
2019-04-16T20:35:51.714Z,7.9
2019-04-16T20:40:54.359Z,7.8
2019-04-16T20:45:56.534Z,7.7
2019-04-16T20:50:59.849Z,7.6
2019-04-16T20:56:01.319Z,7.6
2019-04-16T21:01:03.787Z,7.6
2019-04-16T21:06:07.780Z,7.5
2019-04-16T21:11:09.655Z,7.4
2019-04-16T21:16:11.211Z,7.3
2019-04-16T21:21:13.592Z,7.2
2019-04-16T21:26:16.512Z,7.1
2019-04-16T21:31:18.438Z,7
2019-04-16T21:36:20.873Z,6.9
2019-04-16T21:41:25.545Z,6.8
2019-04-16T21:46:25.774Z,6.7
2019-04-16T21:51:28.228Z,6.6
2019-04-16T21:56:30.626Z,6.5
2019-04-16T22:01:35.727Z,6.5
2019-04-16T22:06:35.805Z,6.4
2019-04-16T22:11:42.960Z,6.2
2019-04-16T22:16:40.506Z,6
2019-04-16T22:21:43.788Z,5.9
2019-04-16T22:26:45.310Z,5.9
2019-04-16T22:31:47.814Z,5.8
2019-04-16T22:36:50.269Z,5.6
2019-04-16T22:41:52.931Z,5.5
2019-04-16T22:46:55.084Z,5.5
2019-04-16T22:51:57.576Z,5.4
2019-04-16T22:57:01.279Z,5.4
2019-04-16T23:02:02.504Z,5.3
2019-04-16T23:07:07.028Z,5.3
2019-04-16T23:12:07.581Z,5.2
